Time;durP1;ratioP1;P1;durP2;ratioP2;P2;SDS_P1;SDS_P2;PMS_P1;PMS_P2;Temp;Humidity;BMP_temperature;BMP_pressure;BME280_temperature;BME280_humidity;BME280_pressure;Samples;Min_cycle;Max_cycle;Signal;HPM_P1;HPM_P2
2023/04/14 00:04:15;;;;;;;5.80;1.70;;;;;;;;;;10415337;28;20033;-59
2023/04/14 00:09:16;;;;;;;2.65;1.55;;;;;;;;;;10415740;28;20025;-59
2023/04/14 00:14:16;;;;;;;6.57;1.55;;;;;;;;;;10415235;28;20029;-59
2023/04/14 00:19:17;;;;;;;4.60;1.50;;;;;;;;;;10393794;28;20069;-59
2023/04/14 00:24:17;;;;;;;4.55;1.48;;;;;;;;;;10398023;28;20037;-59
2023/04/14 00:29:18;;;;;;;2.78;1.30;;;;;;;;;;10397150;28;20033;-59
2023/04/14 00:34:18;;;;;;;1.77;1.50;;;;;;;;;;10407809;28;20030;-59
2023/04/14 00:39:19;;;;;;;5.30;1.90;;;;;;;;;;10389267;28;20497;-60
2023/04/14 00:44:20;;;;;;;4.63;1.58;;;;;;;;;;10390238;28;20034;-70
2023/04/14 00:49:20;;;;;;;2.47;1.48;;;;;;;;;;10405689;28;20040;-59
2023/04/14 00:54:21;;;;;;;3.75;1.50;;;;;;;;;;10401442;28;20038;-60
2023/04/14 00:59:22;;;;;;;4.07;1.55;;;;;;;;;;10412129;28;20030;-59
2023/04/14 01:04:23;;;;;;;5.57;1.25;;;;;;;;;;10416736;28;20065;-59
2023/04/14 01:09:24;;;;;;;1.95;1.35;;;;;;;;;;10416303;28;20025;-59
2023/04/14 01:14:41;;;;;;;3.03;1.48;;;;;;;;;;10412704;28;20063;-68
2023/04/14 01:19:52;;;;;;;3.90;1.63;;;;;;;;;;10412356;28;20033;-61
2023/04/14 01:25:30;;;;;;;2.72;1.60;;;;;;;;;;10417035;28;20025;-60
2023/04/14 01:31:08;;;;;;;1.80;1.33;;;;;;;;;;10410826;28;20044;-60
2023/04/14 01:36:15;;;;;;;2.72;1.50;;;;;;;;;;10411621;28;20041;-59
2023/04/14 01:41:18;;;;;;;2.50;1.27;;;;;;;;;;10400947;28;20028;-59
2023/04/14 01:46:20;;;;;;;2.15;1.25;;;;;;;;;;10409520;28;20029;-59
2023/04/14 01:51:22;;;;;;;3.42;1.27;;;;;;;;;;10410133;28;20046;-60
2023/04/14 01:56:24;;;;;;;2.67;1.38;;;;;;;;;;10399164;28;20034;-59
2023/04/14 02:01:27;;;;;;;4.00;1.50;;;;;;;;;;10412285;28;20100;-61
2023/04/14 02:06:31;;;;;;;2.20;1.40;;;;;;;;;;10398875;28;20033;-59
2023/04/14 02:11:33;;;;;;;2.53;1.30;;;;;;;;;;10408950;28;20033;-59
2023/04/14 02:16:36;;;;;;;3.58;1.52;;;;;;;;;;10409653;28;20473;-59
2023/04/14 02:21:37;;;;;;;1.58;1.30;;;;;;;;;;10410817;28;20116;-59
2023/04/14 02:26:52;;;;;;;3.92;1.48;;;;;;;;;;10410532;28;20029;-59
2023/04/14 02:32:02;;;;;;;3.67;1.17;;;;;;;;;;10408632;28;20377;-60
2023/04/14 02:37:20;;;;;;;2.45;1.20;;;;;;;;;;10408959;28;20120;-59
2023/04/14 02:42:25;;;;;;;1.27;1.02;;;;;;;;;;10408596;28;20072;-59
2023/04/14 02:47:33;;;;;;;3.88;1.20;;;;;;;;;;10387066;28;20036;-59
2023/04/14 02:52:35;;;;;;;3.38;1.20;;;;;;;;;;10408614;28;20054;-59
2023/04/14 02:57:36;;;;;;;3.97;1.20;;;;;;;;;;10395000;28;20478;-59
2023/04/14 03:02:38;;;;;;;3.33;1.45;;;;;;;;;;10399255;28;20037;-59
2023/04/14 03:07:41;;;;;;;1.45;1.17;;;;;;;;;;10406988;28;20055;-59
2023/04/14 03:12:44;;;;;;;1.42;1.08;;;;;;;;;;10408592;28;20029;-59
2023/04/14 03:17:52;;;;;;;1.40;0.93;;;;;;;;;;10407364;28;20021;-59
2023/04/14 03:22:59;;;;;;;1.73;1.00;;;;;;;;;;10408649;28;20084;-59
2023/04/14 03:28:02;;;;;;;1.90;1.13;;;;;;;;;;10408353;28;20116;-59
2023/04/14 03:33:10;;;;;;;1.27;1.10;;;;;;;;;;10407476;28;20026;-59
2023/04/14 03:38:13;;;;;;;1.70;1.13;;;;;;;;;;10407075;28;20485;-59
2023/04/14 03:43:18;;;;;;;1.40;1.10;;;;;;;;;;10406662;28;20048;-59
2023/04/14 03:48:20;;;;;;;1.65;1.00;;;;;;;;;;10407241;28;20048;-59
2023/04/14 03:53:21;;;;;;;1.73;1.20;;;;;;;;;;10405615;28;20136;-59
2023/04/14 03:58:22;;;;;;;1.55;1.20;;;;;;;;;;10407008;28;20022;-59
2023/04/14 04:03:24;;;;;;;1.60;1.10;;;;;;;;;;10406266;28;20025;-59
2023/04/14 04:08:26;;;;;;;1.65;1.27;;;;;;;;;;10410181;28;20084;-59
2023/04/14 04:13:27;;;;;;;1.77;1.20;;;;;;;;;;10415981;28;20033;-59
2023/04/14 04:18:29;;;;;;;1.15;1.05;;;;;;;;;;10391850;28;20032;-67
2023/04/14 04:23:33;;;;;;;2.03;1.20;;;;;;;;;;10413503;28;20036;-59
2023/04/14 04:28:35;;;;;;;1.85;0.98;;;;;;;;;;10414082;28;20469;-59
2023/04/14 04:33:37;;;;;;;1.67;1.10;;;;;;;;;;10414594;28;20029;-59
2023/04/14 04:38:37;;;;;;;1.92;1.17;;;;;;;;;;10414713;28;20033;-59
2023/04/14 04:43:38;;;;;;;1.60;1.25;;;;;;;;;;10415204;28;20026;-59
2023/04/14 04:48:38;;;;;;;0.93;0.93;;;;;;;;;;10413712;28;20087;-58
2023/04/14 04:53:39;;;;;;;1.38;1.13;;;;;;;;;;10414571;28;20077;-59
2023/04/14 04:58:40;;;;;;;2.30;1.00;;;;;;;;;;10409183;28;20037;-58
2023/04/14 05:03:41;;;;;;;1.17;1.02;;;;;;;;;;10405393;28;20044;-63
2023/04/14 05:08:41;;;;;;;0.90;0.90;;;;;;;;;;10416982;28;20056;-64
2023/04/14 05:13:42;;;;;;;1.10;1.00;;;;;;;;;;10411899;28;20558;-59
2023/04/14 05:18:43;;;;;;;2.28;1.00;;;;;;;;;;10412070;28;20363;-60
2023/04/14 05:23:45;;;;;;;1.25;1.02;;;;;;;;;;10410915;28;20277;-59
2023/04/14 05:28:45;;;;;;;0.90;0.90;;;;;;;;;;10400723;28;20088;-59
2023/04/14 05:33:46;;;;;;;0.80;0.80;;;;;;;;;;10411611;28;20026;-60
2023/04/14 05:38:47;;;;;;;2.30;1.20;;;;;;;;;;10411420;28;20504;-60
2023/04/14 05:43:47;;;;;;;8.90;1.17;;;;;;;;;;10404702;28;20025;-59
2023/04/14 05:48:48;;;;;;;4.50;0.98;;;;;;;;;;10408757;28;20036;-61
2023/04/14 05:53:48;;;;;;;3.70;0.98;;;;;;;;;;10402785;28;20045;-60
2023/04/14 05:58:53;;;;;;;3.35;1.00;;;;;;;;;;10406965;28;20033;-60
2023/04/14 06:03:53;;;;;;;2.58;0.90;;;;;;;;;;10397657;28;20267;-60
2023/04/14 06:08:54;;;;;;;12.07;1.55;;;;;;;;;;10402520;28;20044;-61
2023/04/14 06:13:54;;;;;;;27.42;1.65;;;;;;;;;;10389419;28;20425;-60
2023/04/14 06:18:55;;;;;;;19.30;2.63;;;;;;;;;;10408220;28;20535;-60
2023/04/14 06:23:56;;;;;;;16.88;1.98;;;;;;;;;;10407072;28;20481;-61
2023/04/14 06:28:56;;;;;;;9.90;1.45;;;;;;;;;;10406312;28;20056;-60
2023/04/14 06:33:57;;;;;;;3.45;1.50;;;;;;;;;;10406939;28;20025;-59
2023/04/14 06:38:57;;;;;;;14.35;1.40;;;;;;;;;;10409632;28;20389;-61
2023/04/14 06:43:58;;;;;;;3.90;1.30;;;;;;;;;;10405348;28;20065;-60
2023/04/14 06:48:59;;;;;;;18.40;1.98;;;;;;;;;;10407615;28;20079;-61
2023/04/14 06:54:00;;;;;;;6.95;1.20;;;;;;;;;;10407379;28;20057;-61
2023/04/14 06:59:00;;;;;;;8.38;1.60;;;;;;;;;;10407265;28;20523;-60
2023/04/14 07:04:02;;;;;;;3.25;1.42;;;;;;;;;;10408069;28;20208;-67
2023/04/14 07:09:03;;;;;;;2.53;1.30;;;;;;;;;;10412288;28;20366;-66
2023/04/14 07:14:03;;;;;;;1.60;1.10;;;;;;;;;;10408048;28;20030;-65
2023/04/14 07:19:04;;;;;;;9.63;1.40;;;;;;;;;;10408035;28;20473;-66
2023/04/14 07:24:05;;;;;;;3.10;1.38;;;;;;;;;;10408630;28;20028;-66
2023/04/14 07:29:06;;;;;;;2.97;1.00;;;;;;;;;;10409346;28;20028;-65
2023/04/14 07:34:06;;;;;;;5.25;1.70;;;;;;;;;;10408139;28;20805;-67
2023/04/14 07:39:07;;;;;;;1.75;1.10;;;;;;;;;;10408434;28;20029;-65
2023/04/14 07:44:07;;;;;;;3.85;1.20;;;;;;;;;;10394406;28;20033;-65
2023/04/14 07:49:08;;;;;;;1.80;0.98;;;;;;;;;;10412907;28;20028;-66
2023/04/14 07:54:10;;;;;;;2.92;1.10;;;;;;;;;;10412002;28;20049;-66
2023/04/14 07:59:11;;;;;;;2.33;1.20;;;;;;;;;;10412275;28;20288;-64
2023/04/14 08:04:11;;;;;;;4.30;1.23;;;;;;;;;;10394925;28;20018;-60
2023/04/14 08:09:13;;;;;;;3.80;1.10;;;;;;;;;;10383276;28;20022;-60
2023/04/14 08:14:14;;;;;;;1.70;1.10;;;;;;;;;;10381380;28;20038;-61
2023/04/14 08:19:15;;;;;;;2.03;1.10;;;;;;;;;;10404408;28;20041;-60
2023/04/14 08:24:15;;;;;;;1.42;1.08;;;;;;;;;;10412290;28;20036;-60
2023/04/14 08:29:16;;;;;;;3.47;1.38;;;;;;;;;;10389366;28;20370;-62
2023/04/14 08:34:16;;;;;;;1.67;1.00;;;;;;;;;;10395990;28;20554;-60
2023/04/14 08:39:17;;;;;;;1.20;1.10;;;;;;;;;;10379158;28;20079;-61
2023/04/14 08:44:17;;;;;;;1.58;1.00;;;;;;;;;;10379623;28;20029;-63
2023/04/14 08:49:41;;;;;;;2.83;1.23;;;;;;;;;;10411976;28;20038;-66
2023/04/14 08:54:44;;;;;;;1.02;0.90;;;;;;;;;;10394618;28;20068;-61
2023/04/14 08:59:46;;;;;;;4.32;1.20;;;;;;;;;;10400262;28;20396;-66
2023/04/14 09:04:48;;;;;;;3.05;1.20;;;;;;;;;;10395613;28;20024;-66
2023/04/14 09:09:49;;;;;;;1.23;1.10;;;;;;;;;;10392033;28;20045;-64
2023/04/14 09:14:51;;;;;;;3.70;1.20;;;;;;;;;;10411547;28;20038;-65
2023/04/14 09:19:52;;;;;;;1.50;1.33;;;;;;;;;;10397053;28;20029;-66
2023/04/14 09:24:53;;;;;;;1.70;1.20;;;;;;;;;;10403618;28;20030;-66
2023/04/14 09:29:57;;;;;;;2.03;1.10;;;;;;;;;;10409336;28;20028;-64
2023/04/14 09:34:57;;;;;;;2.53;1.17;;;;;;;;;;10402465;28;20060;-65
2023/04/14 09:39:59;;;;;;;2.00;1.30;;;;;;;;;;10402356;28;20036;-66
2023/04/14 09:45:00;;;;;;;1.33;1.20;;;;;;;;;;10404482;28;20033;-66
2023/04/14 09:50:03;;;;;;;1.95;1.30;;;;;;;;;;10400462;28;20476;-65
2023/04/14 09:55:14;;;;;;;1.30;1.20;;;;;;;;;;10395417;28;20057;-65
2023/04/14 10:00:16;;;;;;;2.25;1.10;;;;;;;;;;10393370;28;20030;-66
2023/04/14 10:05:25;;;;;;;1.58;1.00;;;;;;;;;;10401183;28;20044;-62
2023/04/14 10:10:26;;;;;;;1.17;0.90;;;;;;;;;;10400262;28;20488;-66
2023/04/14 10:15:27;;;;;;;1.45;1.20;;;;;;;;;;10392834;28;20037;-67
2023/04/14 10:20:28;;;;;;;1.55;1.00;;;;;;;;;;10385471;28;20312;-66
2023/04/14 10:25:30;;;;;;;4.68;1.00;;;;;;;;;;10403463;28;20470;-65
2023/04/14 10:30:31;;;;;;;1.20;1.10;;;;;;;;;;10388490;28;20449;-66
2023/04/14 10:35:40;;;;;;;1.20;1.10;;;;;;;;;;10397279;28;20534;-65
2023/04/14 10:40:52;;;;;;;2.25;1.10;;;;;;;;;;10393695;28;20489;-64
2023/04/14 10:45:55;;;;;;;1.60;1.10;;;;;;;;;;10381541;28;20041;-64
2023/04/14 10:50:58;;;;;;;4.22;1.17;;;;;;;;;;10404265;28;20033;-64
2023/04/14 10:56:02;;;;;;;1.23;1.10;;;;;;;;;;10408191;28;20064;-64
2023/04/14 11:01:30;;;;;;;1.20;1.08;;;;;;;;;;10407485;28;20029;-60
2023/04/14 11:06:49;;;;;;;1.20;1.00;;;;;;;;;;10406020;28;20039;-60
2023/04/14 11:11:51;;;;;;;2.47;0.95;;;;;;;;;;10407255;28;20057;-60
2023/04/14 11:16:56;;;;;;;0.98;0.90;;;;;;;;;;10405514;28;20061;-60
2023/04/14 11:21:57;;;;;;;1.17;1.08;;;;;;;;;;10405490;28;20125;-61
2023/04/14 11:26:58;;;;;;;1.55;1.08;;;;;;;;;;10406873;28;20033;-63
2023/04/14 11:32:04;;;;;;;1.33;1.02;;;;;;;;;;10419595;28;20022;-64
2023/04/14 11:37:05;;;;;;;1.20;1.08;;;;;;;;;;10410786;28;20120;-60
2023/04/14 11:42:06;;;;;;;1.00;1.00;;;;;;;;;;10420717;28;20120;-60
2023/04/14 11:47:07;;;;;;;0.93;0.90;;;;;;;;;;10407856;28;20033;-60
2023/04/14 11:52:07;;;;;;;1.73;0.90;;;;;;;;;;10414674;28;20045;-64
2023/04/14 11:57:12;;;;;;;1.65;1.00;;;;;;;;;;10416452;28;20052;-60
2023/04/14 12:02:18;;;;;;;1.10;0.98;;;;;;;;;;10416048;28;20393;-60
2023/04/14 12:07:19;;;;;;;0.93;0.93;;;;;;;;;;10419575;28;20034;-61
2023/04/14 12:12:20;;;;;;;0.90;0.90;;;;;;;;;;10420303;28;20029;-60
2023/04/14 12:17:20;;;;;;;1.20;1.02;;;;;;;;;;10411608;28;20045;-65
2023/04/14 12:22:27;;;;;;;1.55;1.08;;;;;;;;;;10415517;28;20036;-61
2023/04/14 12:27:27;;;;;;;0.80;0.80;;;;;;;;;;10414717;28;20046;-60
2023/04/14 12:32:38;;;;;;;0.90;0.90;;;;;;;;;;10408911;28;20029;-60
2023/04/14 12:37:45;;;;;;;3.08;1.10;;;;;;;;;;10398635;28;20496;-61
2023/04/14 12:42:50;;;;;;;1.33;1.10;;;;;;;;;;10402304;28;20029;-60
2023/04/14 12:47:55;;;;;;;3.72;1.00;;;;;;;;;;10400094;28;20037;-59
2023/04/14 12:52:56;;;;;;;1.75;1.17;;;;;;;;;;10386438;28;20107;-59
2023/04/14 12:57:57;;;;;;;4.13;1.13;;;;;;;;;;10381184;28;20486;-58
2023/04/14 13:02:58;;;;;;;6.47;1.02;;;;;;;;;;10403636;28;20033;-63
2023/04/14 13:07:59;;;;;;;4.18;1.13;;;;;;;;;;10398163;28;20060;-59
2023/04/14 13:13:00;;;;;;;4.47;0.90;;;;;;;;;;10390668;28;20028;-59
2023/04/14 13:18:00;;;;;;;2.78;1.08;;;;;;;;;;10412124;28;20032;-67
2023/04/14 13:23:01;;;;;;;0.95;0.82;;;;;;;;;;10397225;28;20034;-60
2023/04/14 13:28:01;;;;;;;1.90;1.10;;;;;;;;;;10396406;28;20108;-62
2023/04/14 13:33:02;;;;;;;3.30;1.35;;;;;;;;;;10396791;28;20036;-60
2023/04/14 13:38:04;;;;;;;2.72;1.00;;;;;;;;;;10396690;28;20055;-65
2023/04/14 13:43:04;;;;;;;2.80;1.27;;;;;;;;;;10384416;28;20040;-59
2023/04/14 13:48:05;;;;;;;4.40;0.98;;;;;;;;;;10388098;28;20481;-58
2023/04/14 13:53:06;;;;;;;6.88;1.02;;;;;;;;;;10387247;28;20037;-59
2023/04/14 13:58:06;;;;;;;6.00;1.35;;;;;;;;;;10385290;28;20040;-60
2023/04/14 14:03:07;;;;;;;3.58;1.23;;;;;;;;;;10383178;28;20021;-67
2023/04/14 14:08:07;;;;;;;3.58;0.90;;;;;;;;;;10392898;28;20101;-66
2023/04/14 14:13:08;;;;;;;5.57;1.30;;;;;;;;;;10393121;28;20029;-67
2023/04/14 14:18:09;;;;;;;4.55;1.13;;;;;;;;;;10404919;28;20145;-67
2023/04/14 14:23:11;;;;;;;0.90;0.90;;;;;;;;;;10401194;28;20037;-67
2023/04/14 14:28:12;;;;;;;1.88;1.00;;;;;;;;;;10404430;28;20021;-67
2023/04/14 14:33:13;;;;;;;3.08;1.20;;;;;;;;;;10400751;28;20022;-67
2023/04/14 14:38:14;;;;;;;1.83;0.93;;;;;;;;;;10397476;28;20033;-67
2023/04/14 14:43:15;;;;;;;2.90;0.98;;;;;;;;;;10400247;28;20033;-65
2023/04/14 14:48:15;;;;;;;1.25;0.90;;;;;;;;;;10406673;28;20033;-67
2023/04/14 14:53:16;;;;;;;1.45;1.00;;;;;;;;;;10431759;23;20049;-61
2023/04/14 14:58:16;;;;;;;1.83;1.02;;;;;;;;;;10398805;28;20025;-61
2023/04/14 15:03:17;;;;;;;2.55;1.10;;;;;;;;;;10406051;28;20022;-61
2023/04/14 15:08:18;;;;;;;8.88;1.55;;;;;;;;;;10404766;28;20177;-60
2023/04/14 15:13:19;;;;;;;7.90;1.35;;;;;;;;;;10402479;28;20441;-60
2023/04/14 15:18:21;;;;;;;5.40;1.30;;;;;;;;;;10405521;28;20083;-60
2023/04/14 15:23:21;;;;;;;6.38;1.58;;;;;;;;;;10403003;28;20497;-60
2023/04/14 15:28:22;;;;;;;7.88;1.63;;;;;;;;;;10396252;28;20099;-60
2023/04/14 15:33:23;;;;;;;1.92;1.33;;;;;;;;;;10398817;28;20730;-60
2023/04/14 15:38:24;;;;;;;1.63;1.10;;;;;;;;;;10401213;28;20041;-60
2023/04/14 15:43:26;;;;;;;2.17;1.35;;;;;;;;;;10398228;28;20029;-60
2023/04/14 15:48:28;;;;;;;4.07;1.23;;;;;;;;;;10391331;28;20121;-61
2023/04/14 15:53:28;;;;;;;5.90;1.30;;;;;;;;;;10380202;28;20056;-60
2023/04/14 15:58:29;;;;;;;1.80;1.10;;;;;;;;;;10402399;28;20025;-62
2023/04/14 16:03:30;;;;;;;2.30;1.20;;;;;;;;;;10402355;28;20045;-60
2023/04/14 16:08:30;;;;;;;3.38;1.70;;;;;;;;;;10404730;28;20029;-61
2023/04/14 16:13:31;;;;;;;6.03;1.45;;;;;;;;;;10402925;28;20065;-60
2023/04/14 16:18:32;;;;;;;3.15;1.52;;;;;;;;;;10411855;28;20484;-61
2023/04/14 16:23:33;;;;;;;6.15;1.33;;;;;;;;;;10411081;28;20036;-61
2023/04/14 16:28:34;;;;;;;5.30;1.35;;;;;;;;;;10410810;28;20026;-61
2023/04/14 16:33:35;;;;;;;4.63;1.27;;;;;;;;;;10411610;28;20087;-61
2023/04/14 16:38:35;;;;;;;2.10;1.20;;;;;;;;;;10410986;28;20532;-61
2023/04/14 16:43:36;;;;;;;5.60;1.30;;;;;;;;;;10410307;28;20044;-61
2023/04/14 16:48:36;;;;;;;4.85;1.60;;;;;;;;;;10409164;28;20033;-61
2023/04/14 16:53:37;;;;;;;3.03;1.40;;;;;;;;;;10406808;28;20045;-60
2023/04/14 16:58:38;;;;;;;2.08;1.23;;;;;;;;;;10410342;28;20041;-61
2023/04/14 17:03:39;;;;;;;2.15;1.52;;;;;;;;;;10409355;28;20461;-60
2023/04/14 17:08:39;;;;;;;4.22;1.65;;;;;;;;;;10416742;28;20052;-60
2023/04/14 17:13:41;;;;;;;2.60;1.35;;;;;;;;;;10407631;28;20033;-61
2023/04/14 17:18:42;;;;;;;2.88;1.17;;;;;;;;;;10407947;28;20059;-60
2023/04/14 17:23:43;;;;;;;9.70;2.00;;;;;;;;;;10415876;28;20040;-60
2023/04/14 17:28:44;;;;;;;4.32;1.40;;;;;;;;;;10406509;28;20037;-60
2023/04/14 17:33:46;;;;;;;3.00;1.33;;;;;;;;;;10383615;28;20030;-60
2023/04/14 17:38:46;;;;;;;4.65;1.45;;;;;;;;;;10404361;28;20087;-60
2023/04/14 17:43:47;;;;;;;5.72;1.75;;;;;;;;;;10402765;28;20558;-61
2023/04/14 17:48:48;;;;;;;8.38;1.75;;;;;;;;;;10406886;28;20037;-61
2023/04/14 17:53:48;;;;;;;4.25;1.50;;;;;;;;;;10406755;28;20048;-61
2023/04/14 17:58:53;;;;;;;9.75;1.40;;;;;;;;;;10407351;28;20041;-61
2023/04/14 18:03:54;;;;;;;8.60;1.40;;;;;;;;;;10405537;28;20095;-60
2023/04/14 18:08:54;;;;;;;6.60;1.50;;;;;;;;;;10406601;28;20098;-59
2023/04/14 18:13:56;;;;;;;4.20;1.63;;;;;;;;;;10402743;28;20033;-60
2023/04/14 18:18:57;;;;;;;2.80;1.30;;;;;;;;;;10402918;28;20140;-59
2023/04/14 18:23:59;;;;;;;3.67;1.85;;;;;;;;;;10403798;28;20097;-59
2023/04/14 18:28:59;;;;;;;2.60;1.40;;;;;;;;;;10404883;28;20037;-60
2023/04/14 18:34:04;;;;;;;12.57;2.05;;;;;;;;;;10405547;28;20425;-59
2023/04/14 18:39:05;;;;;;;4.13;1.30;;;;;;;;;;10402580;28;20465;-59
2023/04/14 18:44:06;;;;;;;11.63;2.50;;;;;;;;;;10400782;28;20034;-60
2023/04/14 18:49:07;;;;;;;46.55;4.43;;;;;;;;;;10400246;28;20034;-59
2023/04/14 18:54:07;;;;;;;18.08;2.65;;;;;;;;;;10403294;28;20033;-59
2023/04/14 18:59:08;;;;;;;18.23;2.75;;;;;;;;;;10401110;28;20029;-59
2023/04/14 19:04:09;;;;;;;14.43;2.58;;;;;;;;;;10402722;28;20488;-59
2023/04/14 19:09:09;;;;;;;11.30;3.55;;;;;;;;;;10397139;28;20021;-60
2023/04/14 19:14:10;;;;;;;8.60;2.47;;;;;;;;;;10398623;28;20029;-63
2023/04/14 19:19:10;;;;;;;6.22;2.38;;;;;;;;;;10403654;28;20026;-61
2023/04/14 19:24:11;;;;;;;11.43;2.25;;;;;;;;;;10402812;28;20372;-61
2023/04/14 19:29:12;;;;;;;13.48;2.25;;;;;;;;;;10373143;28;20605;-61
2023/04/14 19:34:12;;;;;;;12.85;2.88;;;;;;;;;;10402470;28;20412;-61
2023/04/14 19:39:13;;;;;;;11.77;1.70;;;;;;;;;;10403571;28;20513;-60
2023/04/14 19:44:16;;;;;;;5.75;1.88;;;;;;;;;;10409709;28;20037;-59
2023/04/14 19:49:16;;;;;;;5.82;1.55;;;;;;;;;;10413195;28;20382;-60
2023/04/14 19:54:19;;;;;;;7.65;1.77;;;;;;;;;;10372035;28;20045;-61
2023/04/14 19:59:19;;;;;;;4.15;2.10;;;;;;;;;;10408813;28;20061;-60
2023/04/14 20:04:23;;;;;;;4.63;1.50;;;;;;;;;;10411652;28;20049;-59
2023/04/14 20:09:23;;;;;;;6.05;2.10;;;;;;;;;;10410462;28;20031;-59
2023/04/14 20:14:24;;;;;;;6.60;1.98;;;;;;;;;;10409816;28;20048;-60
2023/04/14 20:19:24;;;;;;;11.10;2.42;;;;;;;;;;10410549;28;20431;-59
2023/04/14 20:24:25;;;;;;;11.10;2.20;;;;;;;;;;10404843;28;20042;-59
2023/04/14 20:29:25;;;;;;;8.63;2.20;;;;;;;;;;10404501;28;20025;-59
2023/04/14 20:34:26;;;;;;;7.43;2.40;;;;;;;;;;10396343;28;20532;-60
2023/04/14 20:39:27;;;;;;;8.70;2.28;;;;;;;;;;10410335;28;20044;-59
2023/04/14 20:44:27;;;;;;;10.13;2.67;;;;;;;;;;10408438;28;20032;-60
2023/04/14 20:49:28;;;;;;;22.23;2.75;;;;;;;;;;10407609;28;20076;-59
2023/04/14 20:54:28;;;;;;;12.95;3.35;;;;;;;;;;10405871;28;20057;-59
2023/04/14 20:59:29;;;;;;;9.05;1.80;;;;;;;;;;10410038;28;20374;-59
2023/04/14 21:04:30;;;;;;;9.95;2.28;;;;;;;;;;10406347;28;20607;-60
2023/04/14 21:09:31;;;;;;;7.70;2.10;;;;;;;;;;10408288;28;20493;-60
2023/04/14 21:14:31;;;;;;;6.82;2.33;;;;;;;;;;10408866;28;20082;-60
2023/04/14 21:19:32;;;;;;;7.72;1.90;;;;;;;;;;10409614;28;20029;-59
2023/04/14 21:24:33;;;;;;;7.07;1.90;;;;;;;;;;10407166;28;20466;-59
2023/04/14 21:29:33;;;;;;;5.32;1.80;;;;;;;;;;10405939;28;20108;-59
2023/04/14 21:34:34;;;;;;;6.85;2.08;;;;;;;;;;10405913;28;20018;-59
2023/04/14 21:39:35;;;;;;;4.22;1.75;;;;;;;;;;10409217;28;20029;-59
2023/04/14 21:44:36;;;;;;;4.43;2.00;;;;;;;;;;10407686;28;20033;-59
2023/04/14 21:49:36;;;;;;;7.40;2.15;;;;;;;;;;10407990;28;20033;-59
2023/04/14 21:54:40;;;;;;;6.63;1.85;;;;;;;;;;10406788;28;20041;-59
2023/04/14 21:59:40;;;;;;;5.57;2.10;;;;;;;;;;10408442;28;20501;-60
2023/04/14 22:04:41;;;;;;;9.90;2.10;;;;;;;;;;10405761;28;20021;-59
2023/04/14 22:09:59;;;;;;;3.58;1.90;;;;;;;;;;10401105;28;20029;-60
2023/04/14 22:15:02;;;;;;;5.50;1.80;;;;;;;;;;10399703;28;20370;-60
2023/04/14 22:20:06;;;;;;;7.15;2.10;;;;;;;;;;10397348;28;20033;-61
2023/04/14 22:25:08;;;;;;;7.47;2.35;;;;;;;;;;10398778;28;20043;-62
2023/04/14 22:30:10;;;;;;;6.57;1.90;;;;;;;;;;10382950;28;20044;-61
2023/04/14 22:35:11;;;;;;;4.32;1.60;;;;;;;;;;10405208;28;20025;-61
2023/04/14 22:40:11;;;;;;;8.77;2.05;;;;;;;;;;10405220;28;20025;-61
2023/04/14 22:45:12;;;;;;;5.03;1.90;;;;;;;;;;10405721;28;20068;-61
2023/04/14 22:50:13;;;;;;;8.52;1.80;;;;;;;;;;10404824;28;20066;-61
2023/04/14 22:55:14;;;;;;;5.80;1.63;;;;;;;;;;10405239;28;20056;-60
2023/04/14 23:00:15;;;;;;;9.05;1.90;;;;;;;;;;10404918;28;20275;-61
2023/04/14 23:05:16;;;;;;;2.95;1.75;;;;;;;;;;10402734;28;20595;-61
2023/04/14 23:10:17;;;;;;;6.00;1.85;;;;;;;;;;10403904;28;20037;-61
2023/04/14 23:15:18;;;;;;;3.95;2.10;;;;;;;;;;10404216;28;20029;-61
2023/04/14 23:20:19;;;;;;;4.22;1.80;;;;;;;;;;10403454;28;20126;-61
2023/04/14 23:25:20;;;;;;;2.05;1.40;;;;;;;;;;10405087;28;20124;-61
2023/04/14 23:30:20;;;;;;;4.97;2.13;;;;;;;;;;10405366;28;20030;-62
2023/04/14 23:35:21;;;;;;;3.58;1.73;;;;;;;;;;10404208;28;20030;-61
2023/04/14 23:40:21;;;;;;;3.60;1.30;;;;;;;;;;10403621;28;20045;-62
2023/04/14 23:45:23;;;;;;;5.10;1.63;;;;;;;;;;10392334;28;20430;-61
2023/04/14 23:50:24;;;;;;;3.17;1.70;;;;;;;;;;10401928;28;20109;-61
2023/04/14 23:55:26;;;;;;;2.85;1.75;;;;;;;;;;10403918;28;20107;-61
